Time;durP1;ratioP1;P1;durP2;ratioP2;P2;SDS_P1;SDS_P2;PMS_P1;PMS_P2;Temp;Humidity;BMP_temperature;BMP_pressure;BME280_temperature;BME280_humidity;BME280_pressure;Samples;Min_cycle;Max_cycle;Signal;HPM_P1;HPM_P2
2022/03/21 00:00:53;;;;;;;15.95;11.32;;;;;;;11.10;27.81;103347.03;5059120;28;20041;-66
2022/03/21 00:03:21;;;;;;;15.63;10.98;;;;;;;11.10;27.62;103351.44;5071897;28;20078;-66
2022/03/21 00:05:48;;;;;;;16.35;9.95;;;;;;;11.05;27.75;103348.88;5071652;28;20608;-66
2022/03/21 00:08:17;;;;;;;14.18;10.07;;;;;;;11.07;27.47;103347.09;5071978;28;20420;-65
2022/03/21 00:10:47;;;;;;;15.00;9.02;;;;;;;11.04;27.36;103343.66;5071927;28;20106;-66
2022/03/21 00:13:15;;;;;;;10.75;7.93;;;;;;;11.06;27.13;103347.13;5071371;28;20094;-67
2022/03/21 00:15:43;;;;;;;12.57;8.40;;;;;;;11.05;26.96;103340.13;5070985;28;20051;-66
2022/03/21 00:18:13;;;;;;;11.13;7.03;;;;;;;11.08;26.85;103340.97;5071548;28;20556;-65
2022/03/21 00:20:46;;;;;;;10.35;7.60;;;;;;;11.08;26.44;103333.06;5071283;28;20128;-66
2022/03/21 00:23:13;;;;;;;12.95;7.55;;;;;;;11.06;26.39;103332.22;5071518;28;20464;-66
2022/03/21 00:25:40;;;;;;;11.52;7.22;;;;;;;11.05;26.35;103335.72;5071287;28;20044;-66
2022/03/21 00:28:08;;;;;;;9.43;6.93;;;;;;;11.06;26.06;103331.38;5071202;28;20049;-67
2022/03/21 00:30:36;;;;;;;11.05;5.95;;;;;;;11.06;26.05;103336.63;5069518;28;20045;-66
2022/03/21 00:33:04;;;;;;;9.15;6.32;;;;;;;11.05;26.01;103337.50;5071158;28;20084;-65
2022/03/21 00:35:30;;;;;;;9.57;6.10;;;;;;;11.00;25.73;103334.94;5071046;28;20504;-66
2022/03/21 00:37:58;;;;;;;11.75;6.18;;;;;;;11.01;25.65;103328.81;5071440;28;20121;-66
2022/03/21 00:40:25;;;;;;;8.43;5.85;;;;;;;11.49;27.00;103325.34;5070729;28;20063;-69
2022/03/21 00:42:52;;;;;;;8.13;5.50;;;;;;;11.19;26.30;103332.00;5071010;28;20101;-69
2022/03/21 00:45:25;;;;;;;7.10;4.97;;;;;;;11.16;25.93;103325.06;5073555;28;20105;-68
2022/03/21 00:47:54;;;;;;;8.95;5.40;;;;;;;11.13;25.48;103332.13;5090992;28;20044;-69
2022/03/21 00:50:22;;;;;;;9.75;5.50;;;;;;;11.09;25.49;103331.28;5091006;28;20131;-68
2022/03/21 00:52:52;;;;;;;10.38;5.60;;;;;;;11.06;25.53;103334.00;5090880;28;20048;-68
2022/03/21 00:55:21;;;;;;;7.82;4.85;;;;;;;11.04;25.22;103339.25;5090875;28;20496;-69
2022/03/21 00:57:48;;;;;;;7.40;5.45;;;;;;;11.03;25.11;103336.66;5090937;28;20048;-68
2022/03/21 01:00:20;;;;;;;6.20;4.68;;;;;;;11.00;25.05;103327.06;5090417;28;20048;-68
2022/03/21 01:02:48;;;;;;;8.98;5.10;;;;;;;11.00;24.99;103326.22;5090775;28;20048;-68
2022/03/21 01:05:15;;;;;;;6.47;4.68;;;;;;;10.99;24.93;103322.69;5089821;28;20044;-68
2022/03/21 01:07:42;;;;;;;7.70;4.90;;;;;;;10.97;24.70;103327.13;5090606;28;20512;-68
2022/03/21 01:10:13;;;;;;;10.02;4.97;;;;;;;10.98;24.69;103326.22;5090759;28;20463;-68
2022/03/21 01:12:41;;;;;;;6.78;4.45;;;;;;;10.97;24.64;103327.13;5090584;28;20044;-68
2022/03/21 01:15:08;;;;;;;7.30;4.80;;;;;;;10.93;24.39;103325.41;5090073;28;20048;-69
2022/03/21 01:17:35;;;;;;;7.75;5.10;;;;;;;10.95;24.26;103324.50;5090465;28;20105;-68
2022/03/21 01:20:04;;;;;;;7.45;4.53;;;;;;;10.97;24.29;103318.34;5089547;28;20079;-68
2022/03/21 01:22:30;;;;;;;7.05;4.72;;;;;;;10.91;24.07;103321.97;5090288;28;20052;-68
2022/03/21 01:24:57;;;;;;;8.02;5.15;;;;;;;10.90;24.17;103323.72;5090552;28;20097;-68
2022/03/21 01:27:23;;;;;;;8.90;4.95;;;;;;;10.92;24.04;103327.19;5090440;28;20551;-69
2022/03/21 01:29:50;;;;;;;6.47;4.63;;;;;;;10.89;23.97;103324.63;5089915;28;20044;-69
2022/03/21 01:32:17;;;;;;;7.07;4.85;;;;;;;10.87;23.99;103320.25;5090033;28;20048;-69
2022/03/21 01:34:43;;;;;;;8.75;4.82;;;;;;;10.90;23.75;103321.09;5080780;28;20446;-69
2022/03/21 01:37:10;;;;;;;8.95;4.93;;;;;;;10.89;23.71;103316.75;5068784;28;20048;-69
2022/03/21 01:39:37;;;;;;;7.25;4.72;;;;;;;10.89;23.67;103322.00;5069557;28;20049;-67
2022/03/21 01:42:04;;;;;;;7.30;5.05;;;;;;;10.85;23.64;103325.53;5069748;28;20070;-67
2022/03/21 01:44:30;;;;;;;7.47;4.70;;;;;;;10.83;23.74;103318.59;5069528;28;20094;-67
2022/03/21 01:46:57;;;;;;;7.45;4.82;;;;;;;10.84;23.64;103323.81;5069965;28;20098;-68
2022/03/21 01:49:25;;;;;;;7.45;4.80;;;;;;;10.82;23.63;103317.72;5069720;28;20049;-68
2022/03/21 01:51:53;;;;;;;5.95;4.38;;;;;;;10.83;23.57;103315.97;5069589;28;20132;-68
2022/03/21 01:57:07;;;;;;;6.47;5.05;;;;;;;10.81;23.60;103316.00;5069485;28;20189;-68
2022/03/21 01:59:34;;;;;;;8.10;5.47;;;;;;;10.81;23.51;103318.63;5069198;28;20488;-69
2022/03/21 02:02:00;;;;;;;7.60;5.10;;;;;;;10.79;23.46;103315.13;5069681;28;20049;-68
2022/03/21 02:04:27;;;;;;;7.05;4.90;;;;;;;10.74;23.42;103312.59;5069348;28;20496;-69
2022/03/21 02:06:54;;;;;;;8.10;4.57;;;;;;;10.77;23.41;103320.41;5069443;28;20050;-68
2022/03/21 02:09:20;;;;;;;8.73;5.55;;;;;;;10.78;23.39;103314.28;5069277;28;20489;-69
2022/03/21 02:11:47;;;;;;;6.03;4.65;;;;;;;10.77;23.53;103317.78;5069075;28;20048;-69
2022/03/21 02:14:14;;;;;;;5.60;5.00;;;;;;;10.78;23.41;103318.69;5068618;28;20056;-68
2022/03/21 02:16:41;;;;;;;8.60;4.47;;;;;;;10.74;23.56;103316.97;5068175;28;20440;-68
2022/03/21 02:19:16;;;;;;;8.73;4.75;;;;;;;10.71;23.43;103317.03;5069127;28;20040;-68
2022/03/21 02:22:14;;;;;;;7.07;4.93;;;;;;;10.70;23.35;103315.28;5068697;28;20056;-68
2022/03/21 02:24:44;;;;;;;;;;;;;;;10.65;23.50;103311.88;5069451;28;20053;-68
2022/03/21 02:27:11;;;;;;;6.57;4.53;;;;;;;10.65;23.57;103309.25;5068649;28;20376;-68
2022/03/21 02:29:40;;;;;;;8.40;4.82;;;;;;;10.64;23.50;103318.00;5078389;28;20051;-69
2022/03/21 02:32:07;;;;;;;7.45;4.97;;;;;;;10.61;23.65;103311.03;5086891;28;20094;-69
2022/03/21 02:34:38;;;;;;;8.52;4.60;;;;;;;10.61;23.58;103305.78;5091471;28;20101;-69
2022/03/21 02:37:08;;;;;;;7.10;5.03;;;;;;;10.56;23.58;103307.63;5074082;28;20048;-68
2022/03/21 02:39:35;;;;;;;8.02;4.80;;;;;;;10.54;23.55;103312.91;5072141;28;20049;-68
2022/03/21 02:42:03;;;;;;;6.97;4.35;;;;;;;10.55;23.62;103308.50;5072555;28;20052;-68
2022/03/21 02:44:37;;;;;;;7.00;4.85;;;;;;;10.48;23.65;103305.13;5072314;28;20121;-68
2022/03/21 02:47:06;;;;;;;6.80;4.60;;;;;;;10.48;23.79;103309.50;5071207;28;20052;-69
2022/03/21 02:49:33;;;;;;;8.13;4.72;;;;;;;10.49;23.69;103314.72;5072320;28;20098;-68
2022/03/21 02:52:02;;;;;;;7.57;4.90;;;;;;;10.48;23.82;103318.25;5071326;28;20048;-69
2022/03/21 02:54:28;;;;;;;6.68;4.72;;;;;;;10.49;24.05;103324.34;5072169;28;20052;-68
2022/03/21 02:56:56;;;;;;;6.78;5.25;;;;;;;10.45;24.03;103323.56;5072176;28;20044;-68
2022/03/21 02:59:24;;;;;;;7.03;5.10;;;;;;;10.43;24.14;103325.31;5076845;28;20055;-68
2022/03/21 03:01:53;;;;;;;7.05;4.72;;;;;;;10.42;24.06;103328.81;5089106;28;20044;-68
2022/03/21 03:04:25;;;;;;;6.30;4.68;;;;;;;10.42;24.18;103323.59;5080935;28;20110;-68
2022/03/21 03:06:52;;;;;;;6.63;5.22;;;;;;;10.41;24.23;103324.47;5092204;28;20044;-68
2022/03/21 03:09:20;;;;;;;8.63;5.22;;;;;;;10.39;24.40;103323.63;5092150;28;20052;-68
2022/03/21 03:11:47;;;;;;;9.00;5.22;;;;;;;10.38;24.57;103325.38;5083677;28;20455;-68
2022/03/21 03:14:14;;;;;;;7.97;4.80;;;;;;;10.35;24.72;103324.50;5071913;28;20562;-68
2022/03/21 03:16:40;;;;;;;8.00;5.22;;;;;;;10.33;24.77;103321.91;5071896;28;20404;-69
2022/03/21 03:19:07;;;;;;;6.70;5.00;;;;;;;10.33;24.86;103321.91;5071520;28;20167;-68
2022/03/21 03:21:36;;;;;;;7.43;4.80;;;;;;;10.35;25.05;103325.41;5071770;28;20048;-68
2022/03/21 03:24:08;;;;;;;7.60;4.93;;;;;;;10.32;25.13;103332.44;5071943;28;20053;-69
2022/03/21 03:26:35;;;;;;;7.28;5.13;;;;;;;10.26;25.25;103326.41;5071799;28;20101;-68
2022/03/21 03:29:02;;;;;;;7.88;5.05;;;;;;;10.28;25.13;103329.88;5071858;28;20098;-68
2022/03/21 03:31:29;;;;;;;7.85;4.80;;;;;;;10.27;25.34;103325.50;5074527;28;20051;-68
2022/03/21 03:33:55;;;;;;;9.05;5.05;;;;;;;10.26;25.42;103325.53;5091645;28;20488;-68
2022/03/21 03:36:22;;;;;;;7.75;5.25;;;;;;;10.25;25.41;103316.78;5071723;28;20607;-69
2022/03/21 03:38:51;;;;;;;5.97;4.47;;;;;;;10.24;25.33;103325.53;5071615;28;20054;-68
2022/03/21 03:41:19;;;;;;;8.35;5.00;;;;;;;10.21;25.54;103328.22;5071701;28;20049;-68
2022/03/21 03:43:49;;;;;;;12.60;5.47;;;;;;;10.19;25.50;103326.50;5071632;28;20066;-68
2022/03/21 03:46:17;;;;;;;8.18;5.97;;;;;;;10.15;25.74;103319.56;5071756;28;20055;-68
2022/03/21 03:48:45;;;;;;;9.38;5.57;;;;;;;10.15;25.69;103324.81;5071525;28;20087;-68
2022/03/21 03:51:12;;;;;;;9.35;6.00;;;;;;;10.15;25.57;103315.16;5071039;28;20528;-69
2022/03/21 03:53:40;;;;;;;7.55;5.00;;;;;;;10.12;25.79;103317.84;5071538;28;20500;-69
2022/03/21 03:56:07;;;;;;;7.22;5.18;;;;;;;10.12;25.70;103329.19;5079929;28;20083;-68
2022/03/21 03:58:35;;;;;;;9.30;5.70;;;;;;;10.08;25.76;103322.25;5091863;28;20201;-68
2022/03/21 04:01:04;;;;;;;6.53;4.53;;;;;;;10.05;26.09;103324.06;5091653;28;20450;-68
2022/03/21 04:03:47;;;;;;;8.98;5.13;;;;;;;10.05;25.86;103322.28;5088394;28;20051;-69
2022/03/21 04:06:23;;;;;;;7.68;5.68;;;;;;;10.03;25.93;103320.56;5092159;28;20060;-68
2022/03/21 04:08:51;;;;;;;8.65;5.35;;;;;;;9.99;26.06;103330.22;5090679;28;20492;-69
2022/03/21 04:11:19;;;;;;;9.48;5.72;;;;;;;9.97;26.01;103329.41;5091852;28;20056;-69
2022/03/21 04:13:46;;;;;;;7.10;5.63;;;;;;;9.89;25.93;103329.50;5091828;28;20056;-69
2022/03/21 04:16:16;;;;;;;8.40;5.57;;;;;;;9.90;26.04;103330.34;5091938;28;20450;-69
2022/03/21 04:18:43;;;;;;;7.43;5.45;;;;;;;9.88;26.29;103327.75;5091804;28;20051;-69
2022/03/21 04:21:23;;;;;;;12.38;5.93;;;;;;;9.86;26.17;103319.03;5091571;28;20080;-69
2022/03/21 04:23:50;;;;;;;8.35;5.53;;;;;;;9.86;26.32;103331.28;5086983;28;20049;-69
2022/03/21 04:26:16;;;;;;;10.93;6.03;;;;;;;9.85;26.37;103332.16;5071674;28;20051;-69
2022/03/21 04:28:43;;;;;;;7.35;5.78;;;;;;;9.80;26.27;103329.59;5071691;28;20071;-69
2022/03/21 04:31:09;;;;;;;9.75;5.63;;;;;;;9.72;26.40;103340.16;5071409;28;20044;-69
2022/03/21 04:33:36;;;;;;;10.25;5.65;;;;;;;9.73;26.40;103338.44;5071358;28;20049;-69
2022/03/21 04:36:03;;;;;;;8.50;5.75;;;;;;;9.71;26.41;103338.41;5071573;28;20106;-69
2022/03/21 04:38:30;;;;;;;8.95;5.80;;;;;;;9.70;26.60;103341.06;5071096;28;20102;-69
2022/03/21 04:40:57;;;;;;;9.20;5.70;;;;;;;9.69;26.45;103340.22;5071258;28;20109;-69
2022/03/21 04:43:23;;;;;;;9.10;5.45;;;;;;;9.66;26.69;103348.09;5070868;28;20114;-69
2022/03/21 04:45:50;;;;;;;9.20;6.00;;;;;;;9.67;26.72;103341.13;5071232;28;20174;-69
2022/03/21 04:48:17;;;;;;;11.18;6.45;;;;;;;9.61;26.61;103337.69;5070979;28;20059;-69
2022/03/21 04:50:44;;;;;;;9.80;5.57;;;;;;;9.58;26.82;103336.84;5070873;28;20057;-69
2022/03/21 04:53:11;;;;;;;10.20;5.80;;;;;;;9.54;26.80;103343.84;5070972;28;20049;-69
2022/03/21 04:55:39;;;;;;;9.43;6.18;;;;;;;9.56;26.74;103343.84;5070863;28;20044;-69
2022/03/21 04:58:06;;;;;;;10.38;5.75;;;;;;;9.54;26.87;103349.09;5070912;28;20102;-69
2022/03/21 05:00:34;;;;;;;9.13;5.68;;;;;;;9.56;26.73;103352.59;5070547;28;20467;-69
2022/03/21 05:03:07;;;;;;;7.00;5.43;;;;;;;9.53;26.73;103347.34;5069680;28;20554;-69
2022/03/21 05:05:41;;;;;;;7.53;5.13;;;;;;;9.52;26.63;103350.00;5070364;28;20045;-69
2022/03/21 05:08:07;;;;;;;8.35;5.47;;;;;;;9.55;26.55;103349.94;5070936;28;20048;-69
2022/03/21 05:10:35;;;;;;;8.55;5.63;;;;;;;9.51;26.49;103353.50;5070845;28;20048;-69
2022/03/21 05:13:03;;;;;;;7.25;4.85;;;;;;;9.53;26.58;103359.59;5070479;28;20048;-69
2022/03/21 05:15:30;;;;;;;8.93;5.55;;;;;;;9.51;26.66;103358.75;5069254;28;20076;-68
2022/03/21 05:17:57;;;;;;;9.02;5.40;;;;;;;9.47;26.61;103357.91;5072442;28;20124;-69
2022/03/21 05:20:27;;;;;;;7.60;5.75;;;;;;;9.47;26.53;103365.75;5072661;28;20458;-68
2022/03/21 05:31:11;;;;;;;6.40;5.03;;;;;;;9.37;26.88;103371.97;5090421;28;20047;-69
2022/03/21 05:36:29;;;;;;;8.23;5.50;;;;;;;9.40;27.01;103372.81;5090411;28;20109;-68
2022/03/21 05:38:56;;;;;;;8.32;5.38;;;;;;;9.40;26.81;103377.22;5090508;28;20052;-69
2022/03/21 05:41:24;;;;;;;7.03;5.05;;;;;;;9.38;26.94;103378.97;5090364;28;20059;-68
2022/03/21 05:43:50;;;;;;;7.18;5.55;;;;;;;9.31;27.06;103381.63;5090537;28;20052;-69
2022/03/21 05:46:17;;;;;;;7.80;5.07;;;;;;;9.27;27.27;103382.53;5090400;28;20443;-69
2022/03/21 05:48:51;;;;;;;13.15;5.70;;;;;;;9.20;27.63;103387.84;5086038;28;20054;-69
2022/03/21 05:51:27;;;;;;;12.73;5.93;;;;;;;9.13;27.90;103377.44;5080175;28;20087;-69
2022/03/21 05:53:56;;;;;;;10.93;6.50;;;;;;;9.08;27.98;103392.31;5090007;28;20048;-69
2022/03/21 05:56:25;;;;;;;25.70;6.72;;;;;;;8.97;28.32;103381.91;5089967;28;20382;-69
2022/03/21 05:58:53;;;;;;;19.60;6.25;;;;;;;8.98;28.70;103378.41;5089959;28;20051;-69
2022/03/21 06:01:23;;;;;;;7.22;4.78;;;;;;;9.30;29.84;103381.66;5084365;28;20048;-70
2022/03/21 06:03:52;;;;;;;9.65;4.85;;;;;;;10.80;33.79;103379.06;5069627;28;20079;-69
2022/03/21 06:06:21;;;;;;;12.98;5.80;;;;;;;10.67;34.60;103383.63;5069253;28;20048;-62
2022/03/21 06:08:49;;;;;;;16.20;6.18;;;;;;;10.12;34.66;103386.91;5069299;28;20048;-65
2022/03/21 06:11:15;;;;;;;18.98;6.13;;;;;;;9.75;33.90;103389.97;5088731;28;20401;-63
2022/03/21 06:13:43;;;;;;;18.00;6.40;;;;;;;9.57;33.29;103395.38;5089144;28;20044;-64
2022/03/21 06:16:11;;;;;;;16.20;6.53;;;;;;;9.45;32.80;103394.63;5089281;28;20048;-64
2022/03/21 06:18:39;;;;;;;9.48;5.95;;;;;;;9.37;32.29;103390.31;5086497;28;20044;-62
2022/03/21 06:21:08;;;;;;;9.90;5.93;;;;;;;9.31;31.61;103399.13;5089565;28;20385;-63
2022/03/21 06:23:35;;;;;;;14.25;7.22;;;;;;;9.25;31.49;103392.16;5085833;28;20044;-67
2022/03/21 06:26:03;;;;;;;14.95;6.68;;;;;;;9.23;30.81;103391.31;5069470;28;20083;-70
2022/03/21 06:28:30;;;;;;;13.88;6.38;;;;;;;9.23;30.72;103391.31;5069299;28;20045;-62
2022/03/21 06:30:57;;;;;;;13.98;6.20;;;;;;;9.22;31.10;103399.16;5069364;28;20044;-64
2022/03/21 06:33:26;;;;;;;13.57;7.53;;;;;;;9.23;31.24;103406.16;5069206;28;20079;-63
2022/03/21 06:35:54;;;;;;;9.65;6.20;;;;;;;9.25;31.15;103402.63;5085264;28;20139;-63
2022/03/21 06:38:21;;;;;;;13.90;6.53;;;;;;;9.28;31.16;103400.00;5086742;28;20097;-81
2022/03/21 06:40:49;;;;;;;14.43;6.63;;;;;;;9.31;31.15;103402.59;5089232;28;20048;-62
2022/03/21 06:43:16;;;;;;;16.15;6.15;;;;;;;9.39;31.11;103406.91;5089226;28;20052;-76
2022/03/21 06:45:43;;;;;;;11.60;6.78;;;;;;;9.46;30.90;103406.84;5089449;28;20389;-62
2022/03/21 06:48:10;;;;;;;15.70;6.25;;;;;;;9.49;30.83;103411.19;5089429;28;20105;-63
2022/03/21 06:50:37;;;;;;;14.43;6.63;;;;;;;9.58;30.50;103410.22;5084711;28;20052;-63
2022/03/21 06:53:04;;;;;;;13.05;6.18;;;;;;;9.69;30.34;103412.72;5069420;28;20416;-62
2022/03/21 06:55:30;;;;;;;14.38;7.10;;;;;;;10.01;30.17;103415.03;5069027;28;20455;-61
2022/03/21 06:57:57;;;;;;;14.70;6.53;;;;;;;10.06;29.78;103421.09;5068162;28;20090;-62
2022/03/21 07:00:24;;;;;;;10.27;6.22;;;;;;;10.16;29.70;103418.34;5068720;28;20049;-62
2022/03/21 07:02:50;;;;;;;13.55;6.78;;;;;;;10.25;29.26;103423.53;5068778;28;20055;-62
2022/03/21 07:05:18;;;;;;;12.88;6.10;;;;;;;10.37;29.00;103430.41;5068880;28;20045;-62
2022/03/21 07:07:44;;;;;;;20.08;4.22;;;;;;;10.87;29.15;103425.34;5068633;28;20714;-62
2022/03/21 07:10:11;;;;;;;13.82;7.15;;;;;;;10.94;30.41;103422.63;5068091;28;20601;-62
2022/03/21 07:12:38;;;;;;;14.77;6.60;;;;;;;11.00;30.25;103424.28;5080413;28;20055;-69
2022/03/21 07:15:06;;;;;;;14.20;6.78;;;;;;;10.96;29.97;103422.59;5071996;28;20052;-61
2022/03/21 07:17:32;;;;;;;23.83;7.75;;;;;;;11.00;30.14;103428.69;5068786;28;20044;-62
2022/03/21 07:19:59;;;;;;;22.95;8.77;;;;;;;11.13;29.71;103413.59;5069069;28;20051;-61
2022/03/21 07:22:26;;;;;;;16.95;7.15;;;;;;;11.14;29.65;103413.56;5088832;28;20056;-61
2022/03/21 07:24:54;;;;;;;14.07;7.90;;;;;;;11.17;29.37;103420.53;5088620;28;20571;-67
2022/03/21 07:27:21;;;;;;;13.35;6.68;;;;;;;11.25;29.08;103423.91;5072023;28;20044;-62
2022/03/21 07:29:47;;;;;;;16.33;7.65;;;;;;;11.22;29.02;103419.56;5085972;28;20044;-67
2022/03/21 07:32:14;;;;;;;16.25;7.10;;;;;;;11.37;28.73;103430.72;5088737;28;20059;-62
2022/03/21 07:34:41;;;;;;;13.60;6.43;;;;;;;11.25;28.47;103426.53;5087190;28;20044;-64
2022/03/21 07:37:07;;;;;;;14.48;7.47;;;;;;;11.41;28.00;103428.03;5083466;28;20535;-63
2022/03/21 07:39:36;;;;;;;11.48;6.60;;;;;;;11.58;27.48;103432.13;5090246;28;20048;-62
2022/03/21 07:42:03;;;;;;;11.68;6.25;;;;;;;11.65;27.28;103433.72;5091052;28;20044;-63
2022/03/21 07:47:17;;;;;;;12.65;6.63;;;;;;;11.83;26.52;103432.50;5091375;28;20172;-62
2022/03/21 07:49:46;;;;;;;18.60;6.32;;;;;;;11.98;26.02;103438.44;5091540;28;20098;-62
2022/03/21 07:52:13;;;;;;;14.40;6.45;;;;;;;12.12;25.67;103427.63;5092007;28;20135;-63
2022/03/21 07:54:40;;;;;;;11.18;5.93;;;;;;;12.29;25.55;103436.06;5091349;28;20040;-63
2022/03/21 07:57:07;;;;;;;10.95;6.25;;;;;;;12.43;25.45;103432.25;5092216;28;20051;-66
2022/03/21 07:59:34;;;;;;;14.82;6.03;;;;;;;12.50;24.88;103433.88;5077353;28;20094;-63
2022/03/21 08:02:03;;;;;;;11.60;6.10;;;;;;;12.80;24.43;103429.69;5071618;28;20048;-63
2022/03/21 08:04:31;;;;;;;15.48;6.70;;;;;;;12.99;24.30;103426.63;5071014;28;20079;-63
2022/03/21 08:06:59;;;;;;;12.82;6.60;;;;;;;13.19;24.06;103434.06;5071431;28;20102;-63
2022/03/21 08:09:27;;;;;;;10.32;7.18;;;;;;;13.18;24.14;103433.19;5070444;28;20428;-63
2022/03/21 08:11:55;;;;;;;12.18;7.07;;;;;;;13.31;24.09;103428.47;5075231;28;20563;-61
2022/03/21 08:14:23;;;;;;;13.32;6.43;;;;;;;13.48;24.04;103428.06;5086285;28;20078;-61
2022/03/21 08:16:50;;;;;;;10.70;7.20;;;;;;;13.54;24.16;103427.06;5091354;28;20048;-61
2022/03/21 08:19:19;;;;;;;15.38;6.70;;;;;;;13.64;24.24;103433.81;5090786;28;20040;-62
2022/03/21 08:21:45;;;;;;;14.82;7.82;;;;;;;13.62;24.17;103435.63;5091226;28;20108;-62
2022/03/21 08:24:12;;;;;;;10.88;7.13;;;;;;;13.67;24.20;103432.88;5090390;28;20094;-62
2022/03/21 08:26:40;;;;;;;21.02;7.53;;;;;;;13.75;24.07;103427.41;5090865;28;20169;-62
2022/03/21 08:29:08;;;;;;;15.60;7.82;;;;;;;13.99;23.80;103431.13;5091405;28;20507;-62
2022/03/21 08:31:35;;;;;;;13.15;7.47;;;;;;;14.13;23.43;103429.00;5082634;28;20040;-62
2022/03/21 08:34:05;;;;;;;13.35;7.40;;;;;;;14.26;23.09;103432.13;5070421;28;20049;-73
2022/03/21 08:36:32;;;;;;;9.43;7.00;;;;;;;14.35;22.84;103434.50;5070699;28;20049;-62
2022/03/21 08:39:00;;;;;;;14.40;7.05;;;;;;;14.44;22.55;103428.06;5082760;28;20040;-63
2022/03/21 08:41:27;;;;;;;16.63;7.70;;;;;;;14.44;22.63;103429.88;5089723;28;20047;-62
2022/03/21 08:43:54;;;;;;;14.85;7.05;;;;;;;14.59;22.44;103424.13;5090499;28;20070;-62
2022/03/21 08:46:21;;;;;;;11.23;7.15;;;;;;;14.78;22.24;103418.28;5091054;28;20097;-62
2022/03/21 08:51:54;;;;;;;12.68;7.35;;;;;;;14.94;21.51;103419.50;5088754;28;20129;-63
2022/03/21 08:54:21;;;;;;;17.63;7.05;;;;;;;15.15;21.35;103422.41;5089406;28;20051;-62
2022/03/21 08:56:48;;;;;;;13.88;7.15;;;;;;;15.08;21.58;103418.22;5090504;28;20048;-62
2022/03/21 08:59:15;;;;;;;10.30;6.95;;;;;;;14.97;21.37;103421.19;5090733;28;20480;-63
2022/03/21 09:01:42;;;;;;;9.65;7.00;;;;;;;15.35;20.92;103409.34;5090151;28;20052;-63
2022/03/21 09:04:09;;;;;;;11.50;6.65;;;;;;;15.52;20.77;103411.41;5090301;28;20077;-63
2022/03/21 09:06:36;;;;;;;13.48;7.43;;;;;;;15.73;20.44;103408.06;5085991;28;20051;-63
2022/03/21 09:09:03;;;;;;;12.30;6.65;;;;;;;15.67;20.61;103403.88;5070429;28;20463;-69
2022/03/21 09:11:30;;;;;;;10.18;6.72;;;;;;;15.87;20.14;103410.25;5069138;28;20045;-63
2022/03/21 09:13:57;;;;;;;10.52;6.82;;;;;;;15.99;19.75;103408.00;5069337;28;20053;-62
2022/03/21 09:16:23;;;;;;;9.15;6.45;;;;;;;16.18;19.72;103409.13;5070213;28;20045;-63
2022/03/21 09:18:51;;;;;;;9.52;6.78;;;;;;;16.40;19.57;103409.16;5070174;28;20422;-63
2022/03/21 09:21:18;;;;;;;10.90;6.97;;;;;;;16.71;18.96;103407.94;5070293;28;20059;-64
2022/03/21 09:23:44;;;;;;;12.68;7.18;;;;;;;16.92;19.12;103401.78;5069018;28;20479;-64
2022/03/21 09:26:11;;;;;;;13.35;7.25;;;;;;;17.14;19.02;103395.59;5070442;28;20056;-63
2022/03/21 09:28:48;;;;;;;10.02;5.55;;;;;;;17.27;19.46;103394.16;5075855;28;20542;-65
2022/03/21 09:31:15;;;;;;;10.38;7.07;;;;;;;17.66;20.59;103395.16;5089500;28;20052;-63
2022/03/21 09:34:02;;;;;;;10.70;6.85;;;;;;;17.42;20.21;103397.06;5067031;28;20049;-64
2022/03/21 09:36:29;;;;;;;11.05;7.30;;;;;;;17.52;19.67;103390.47;5067996;28;20048;-63
2022/03/21 09:38:55;;;;;;;10.63;7.55;;;;;;;17.51;19.42;103387.84;5069760;28;20444;-63
2022/03/21 09:41:25;;;;;;;9.68;7.00;;;;;;;17.68;18.94;103385.31;5069200;28;20094;-63
2022/03/21 09:43:55;;;;;;;11.65;6.60;;;;;;;17.67;18.88;103383.59;5068744;28;20045;-63
2022/03/21 09:46:22;;;;;;;14.30;6.88;;;;;;;17.88;18.77;103378.25;5069901;28;20051;-63
2022/03/21 09:48:57;;;;;;;18.00;7.85;;;;;;;18.15;18.45;103378.81;5069236;28;20048;-63
2022/03/21 09:51:26;;;;;;;9.27;6.90;;;;;;;18.26;18.19;103378.31;5069588;28;20057;-63
2022/03/21 09:53:57;;;;;;;9.70;6.75;;;;;;;18.37;17.98;103380.44;5068605;28;20105;-63
2022/03/21 09:56:25;;;;;;;12.57;7.30;;;;;;;18.35;17.97;103382.34;5069303;28;20044;-63
2022/03/21 09:59:01;;;;;;;11.27;7.28;;;;;;;18.48;17.65;103369.31;5081283;28;20139;-63
2022/03/21 10:01:29;;;;;;;10.60;7.13;;;;;;;18.68;17.37;103374.50;5088721;28;20052;-64
2022/03/21 10:03:57;;;;;;;9.90;7.03;;;;;;;18.85;17.47;103370.16;5088112;28;20052;-69
2022/03/21 10:06:35;;;;;;;10.23;7.30;;;;;;;18.96;16.99;103372.28;5089246;28;20048;-63
2022/03/21 10:09:10;;;;;;;9.20;6.93;;;;;;;18.97;17.01;103361.59;5089476;28;20048;-63
2022/03/21 10:11:39;;;;;;;9.23;6.40;;;;;;;19.09;17.04;103368.94;5089320;28;20044;-64
2022/03/21 10:14:27;;;;;;;12.05;7.35;;;;;;;19.33;16.34;103355.31;5088305;28;20044;-63
2022/03/21 10:17:09;;;;;;;10.68;7.32;;;;;;;19.39;16.63;103360.31;5072946;28;20098;-64
2022/03/21 10:19:47;;;;;;;9.93;6.82;;;;;;;19.46;16.05;103357.31;5068746;28;20052;-63
2022/03/21 10:22:16;;;;;;;9.18;7.82;;;;;;;19.61;16.05;103355.66;5068497;28;20066;-63
2022/03/21 10:24:45;;;;;;;9.13;6.95;;;;;;;19.78;16.05;103354.72;5067564;28;20051;-63
2022/03/21 10:27:40;;;;;;;8.57;4.63;;;;;;;20.04;17.51;103348.03;5076746;28;20055;-64
2022/03/21 10:30:16;;;;;;;8.82;5.75;;;;;;;20.11;17.87;103354.72;5070084;28;20441;-64
2022/03/21 10:32:54;;;;;;;8.07;6.28;;;;;;;20.21;18.87;103353.28;5072993;28;20493;-63
2022/03/21 10:35:28;;;;;;;8.15;5.85;;;;;;;20.16;19.09;103351.78;5067360;28;20055;-63
2022/03/21 10:38:03;;;;;;;12.82;6.05;;;;;;;20.32;19.32;103341.97;5068394;28;20504;-63
2022/03/21 10:40:41;;;;;;;10.07;7.40;;;;;;;20.10;18.76;103342.34;5068464;28;20049;-65
2022/03/21 10:43:11;;;;;;;8.98;7.25;;;;;;;19.95;18.02;103349.38;5086564;28;20172;-69
2022/03/21 10:45:47;;;;;;;11.38;7.30;;;;;;;19.86;17.37;103340.09;5087973;28;20052;-62
2022/03/21 10:48:24;;;;;;;11.57;7.28;;;;;;;19.92;16.90;103338.03;5088658;28;20079;-62
2022/03/21 10:50:53;;;;;;;18.27;8.05;;;;;;;20.19;16.80;103338.31;5076449;28;20047;-63
2022/03/21 10:53:29;;;;;;;11.23;7.68;;;;;;;20.48;16.24;103330.44;5082925;28;20044;-63
2022/03/21 10:56:01;;;;;;;12.25;8.10;;;;;;;20.50;16.02;103326.72;5109066;28;20047;-63
2022/03/21 10:58:41;;;;;;;11.20;8.10;;;;;;;20.49;16.09;103316.16;5108532;28;20419;-63
2022/03/21 11:01:18;;;;;;;10.25;8.10;;;;;;;20.52;15.88;103322.16;5108860;28;20384;-63
2022/03/21 11:03:49;;;;;;;10.57;7.55;;;;;;;20.58;15.71;103315.59;5107987;28;20048;-63
2022/03/21 11:06:17;;;;;;;9.27;7.22;;;;;;;20.31;16.15;103316.25;5108745;28;20131;-64
2022/03/21 11:08:47;;;;;;;10.43;7.55;;;;;;;20.45;15.61;103314.63;5090529;28;20059;-63
2022/03/21 11:11:15;;;;;;;12.90;7.72;;;;;;;20.68;15.43;103308.81;5088325;28;20050;-63
2022/03/21 11:13:42;;;;;;;11.05;7.45;;;;;;;20.93;15.26;103309.19;5089040;28;20055;-63
2022/03/21 11:16:09;;;;;;;12.27;7.82;;;;;;;20.96;15.17;103304.53;5092690;28;20048;-63
2022/03/21 11:18:40;;;;;;;12.57;7.97;;;;;;;20.99;15.25;103299.00;5092228;28;20052;-63
2022/03/21 11:21:11;;;;;;;10.77;7.57;;;;;;;21.04;15.09;103294.22;5092540;28;20044;-71
2022/03/21 11:23:38;;;;;;;11.50;8.23;;;;;;;21.27;15.06;103291.97;5092132;28;20091;-71
2022/03/21 11:26:19;;;;;;;8.98;8.00;;;;;;;21.32;15.06;103291.69;5082816;28;20066;-68
2022/03/21 11:29:28;;;;;;;10.65;7.65;;;;;;;21.48;15.06;103288.91;5071286;28;20045;-63
2022/03/21 11:32:25;;;;;;;10.23;7.57;;;;;;;21.36;14.98;103296.72;5072065;28;20055;-63
2022/03/21 11:35:13;;;;;;;9.88;8.05;;;;;;;21.36;14.60;103286.03;5071365;28;20122;-67
2022/03/21 11:37:40;;;;;;;8.35;7.05;;;;;;;21.59;14.48;103288.28;5071916;28;20052;-63
2022/03/21 11:40:27;;;;;;;9.63;7.75;;;;;;;21.56;14.65;103275.97;5071169;28;20252;-64
2022/03/21 11:43:16;;;;;;;11.30;8.48;;;;;;;21.52;14.48;103279.72;5071672;28;20443;-63
2022/03/21 11:45:43;;;;;;;10.57;8.27;;;;;;;21.65;14.41;103275.38;5071091;28;20048;-64
2022/03/21 11:48:22;;;;;;;12.13;7.93;;;;;;;21.54;14.30;103272.50;5082661;28;20036;-62
2022/03/21 11:50:55;;;;;;;9.25;7.85;;;;;;;21.73;14.12;103260.66;5087739;28;20043;-63
2022/03/21 11:53:31;;;;;;;12.35;7.90;;;;;;;21.72;14.13;103259.78;5075363;28;20524;-62